Time;durP1;ratioP1;P1;durP2;ratioP2;P2;SDS_P1;SDS_P2;PMS_P1;PMS_P2;Temp;Humidity;BMP_temperature;BMP_pressure;BME280_temperature;BME280_humidity;BME280_pressure;Samples;Min_cycle;Max_cycle;Signal;HPM_P1;HPM_P2
2023/10/25 00:02:01;;;;;;;;;;;;;;;27.72;34.62;100258.78;5056772;28;1018;-43
2023/10/25 00:04:26;;;;;;;;;;;;;;;27.73;34.82;100260.44;5067790;28;1909;-43
2023/10/25 00:06:52;;;;;;;;;;;;;;;27.68;34.80;100253.94;5070156;28;987;-43
2023/10/25 00:09:17;;;;;;;;;;;;;;;27.75;34.48;100252.16;5064965;28;1023;-43
2023/10/25 00:11:43;;;;;;;;;;;;;;;27.59;34.85;100245.97;5069964;28;1052;-44
2023/10/25 00:14:08;;;;;;;;;;;;;;;27.65;34.77;100243.53;5056672;28;1325;-45
2023/10/25 00:16:34;;;;;;;;;;;;;;;27.74;34.25;100247.78;5056625;28;1191;-44
2023/10/25 00:18:59;;;;;;;;;;;;;;;27.70;34.19;100236.53;5054031;28;1017;-43
2023/10/25 00:21:25;;;;;;;;;;;;;;;27.63;34.87;100232.91;5042141;28;1020;-44
2023/10/25 00:23:50;;;;;;;;;;;;;;;27.64;34.81;100229.19;5045386;28;1905;-45
2023/10/25 00:26:16;;;;;;;;;;;;;;;27.70;34.49;100236.53;5036191;28;1044;-44
2023/10/25 00:28:48;;;;;;;;;;;;;;;27.67;34.45;100236.06;5036323;28;1048;-44
2023/10/25 00:31:13;;;;;;;;;;;;;;;27.63;34.68;100225.66;5040821;28;1326;-44
2023/10/25 00:33:39;;;;;;;;;;;;;;;27.61;34.51;100224.19;5027105;28;1515;-44
2023/10/25 00:36:05;;;;;;;;;;;;;;;27.53;34.76;100214.38;5035949;28;1048;-45
2023/10/25 00:38:30;;;;;;;;;;;;;;;27.51;34.52;100211.03;5018827;28;1230;-45
2023/10/25 00:40:56;;;;;;;;;;;;;;;27.59;34.40;100207.34;5018744;28;1349;-44
2023/10/25 00:43:22;;;;;;;;;;;;;;;27.58;34.55;100211.06;5036141;28;1906;-44
2023/10/25 00:45:54;;;;;;;;;;;;;;;27.60;34.61;100203.59;5049298;28;1056;-44
2023/10/25 00:48:20;;;;;;;;;;;;;;;27.46;34.82;100198.13;5030964;28;1065;-44
2023/10/25 00:50:45;;;;;;;;;;;;;;;27.54;34.46;100190.91;5036142;28;1057;-42
2023/10/25 00:53:11;;;;;;;;;;;;;;;27.56;34.02;100191.53;5026042;28;1093;-44
2023/10/25 00:55:36;;;;;;;;;;;;;;;27.60;34.11;100193.63;5018433;28;1165;-45
2023/10/25 00:58:03;;;;;;;;;;;;;;;27.67;34.07;100190.13;5019004;28;1124;-44
2023/10/25 01:00:29;;;;;;;;;;;;;;;27.56;34.29;100176.13;5049406;28;1064;-44
2023/10/25 01:02:54;;;;;;;;;;;;;;;27.63;34.15;100182.44;5030384;28;1195;-43
2023/10/25 01:05:20;;;;;;;;;;;;;;;27.52;34.39;100193.81;5036815;28;1984;-44
2023/10/25 01:07:45;;;;;;;;;;;;;;;27.58;34.55;100193.00;5048494;28;885;-42
2023/10/25 01:10:11;;;;;;;;;;;;;;;27.60;34.15;100185.53;5022705;28;1156;-43
2023/10/25 01:12:36;;;;;;;;;;;;;;;27.52;34.38;100188.41;5051999;28;1016;-43
2023/10/25 01:15:02;;;;;;;;;;;;;;;27.50;34.21;100175.09;5045946;28;1086;-45
2023/10/25 01:17:28;;;;;;;;;;;;;;;27.55;34.50;100173.63;5047432;28;1195;-43
2023/10/25 01:19:53;;;;;;;;;;;;;;;27.60;34.41;100177.44;5021900;28;1037;-44
2023/10/25 01:22:23;;;;;;;;;;;;;;;27.59;34.71;100181.13;5051976;28;1193;-43
2023/10/25 01:24:48;;;;;;;;;;;;;;;27.59;34.28;100183.03;5022109;28;1975;-43
2023/10/25 01:27:14;;;;;;;;;;;;;;;27.59;34.19;100175.75;5052538;28;1092;-43
2023/10/25 01:29:39;;;;;;;;;;;;;;;27.60;34.27;100180.13;5046033;28;1172;-44
2023/10/25 01:32:05;;;;;;;;;;;;;;;27.59;34.53;100181.13;5025853;28;853;-44
2023/10/25 01:34:30;;;;;;;;;;;;;;;27.66;34.32;100194.69;5052619;28;1100;-44
2023/10/25 01:36:56;;;;;;;;;;;;;;;27.59;34.13;100193.84;5034173;28;1567;-43
2023/10/25 01:39:21;;;;;;;;;;;;;;;27.60;34.04;100203.59;5040778;28;1123;-43
2023/10/25 01:41:47;;;;;;;;;;;;;;;27.63;34.03;100195.94;5051559;28;1020;-43
2023/10/25 01:44:13;;;;;;;;;;;;;;;27.58;34.31;100187.59;5048063;28;1894;-43
2023/10/25 01:46:38;;;;;;;;;;;;;;;27.58;34.24;100184.88;5058952;28;1115;-43
2023/10/25 01:49:04;;;;;;;;;;;;;;;27.49;33.92;100186.09;5022296;28;1080;-44
2023/10/25 01:51:29;;;;;;;;;;;;;;;27.51;34.45;100187.56;5021550;28;1272;-45
2023/10/25 01:53:54;;;;;;;;;;;;;;;27.57;34.28;100187.78;5020777;28;1255;-42
2023/10/25 01:56:20;;;;;;;;;;;;;;;27.52;34.18;100185.69;5050436;28;853;-44
2023/10/25 01:58:45;;;;;;;;;;;;;;;27.48;34.22;100179.84;5023007;28;1213;-44
2023/10/25 02:01:11;;;;;;;;;;;;;;;27.60;33.84;100182.00;5021366;28;1218;-44
2023/10/25 02:03:37;;;;;;;;;;;;;;;27.62;33.93;100169.13;5038910;28;1905;-43
2023/10/25 02:06:15;;;;;;;;;;;;;;;27.60;33.99;100169.31;5040355;28;1095;-44
2023/10/25 02:08:41;;;;;;;;;;;;;;;27.57;34.28;100164.31;5028384;28;1395;-44
2023/10/25 02:11:07;;;;;;;;;;;;;;;27.52;34.32;100166.78;5045726;28;1103;-46
2023/10/25 02:13:32;;;;;;;;;;;;;;;27.58;33.97;100168.69;5020770;28;1067;-43
2023/10/25 02:15:58;;;;;;;;;;;;;;;27.49;33.93;100167.19;5051101;28;1061;-44
2023/10/25 02:18:24;;;;;;;;;;;;;;;27.51;33.93;100155.13;5060571;28;1115;-44
2023/10/25 02:20:51;;;;;;;;;;;;;;;27.60;33.71;100149.56;5058159;28;888;-43
2023/10/25 02:23:16;;;;;;;;;;;;;;;27.52;34.12;100158.69;5046604;28;1142;-42
2023/10/25 02:25:42;;;;;;;;;;;;;;;27.62;33.88;100153.75;5065748;28;1905;-47
2023/10/25 02:28:08;;;;;;;;;;;;;;;27.53;34.12;100151.41;5058454;28;1162;-44
2023/10/25 02:30:34;;;;;;;;;;;;;;;27.52;34.00;100150.56;5071149;28;1064;-44
2023/10/25 02:32:59;;;;;;;;;;;;;;;27.41;33.76;100130.34;5058496;28;1106;-44
2023/10/25 02:35:25;;;;;;;;;;;;;;;27.58;33.88;100151.63;5040241;28;1095;-43
2023/10/25 02:37:51;;;;;;;;;;;;;;;27.50;33.87;100149.94;5053392;28;1071;-44
2023/10/25 02:40:16;;;;;;;;;;;;;;;27.44;34.34;100134.53;5058178;28;1028;-44
2023/10/25 02:42:44;;;;;;;;;;;;;;;27.49;33.74;100143.69;5058235;28;1041;-43
2023/10/25 02:45:09;;;;;;;;;;;;;;;27.57;33.53;100133.75;5070282;28;1959;-45
2023/10/25 02:47:35;;;;;;;;;;;;;;;27.48;34.16;100131.22;5040676;28;2308;-43
2023/10/25 02:50:00;;;;;;;;;;;;;;;27.53;33.84;100144.13;5070589;28;1069;-43
2023/10/25 02:52:27;;;;;;;;;;;;;;;27.48;33.98;100150.13;5071721;28;1114;-43
2023/10/25 02:54:56;;;;;;;;;;;;;;;27.47;33.77;100153.88;5039933;28;981;-43
2023/10/25 02:57:21;;;;;;;;;;;;;;;27.48;33.83;100157.41;5057746;28;1037;-43
2023/10/25 02:59:47;;;;;;;;;;;;;;;27.50;33.91;100153.47;5053264;28;1127;-43
2023/10/25 03:02:13;;;;;;;;;;;;;;;27.48;33.74;100155.53;5064349;28;1107;-43
2023/10/25 03:04:38;;;;;;;;;;;;;;;27.58;33.85;100141.66;5077378;28;1988;-44
2023/10/25 03:07:05;;;;;;;;;;;;;;;27.55;33.53;100143.94;5070354;28;1024;-44
2023/10/25 03:09:30;;;;;;;;;;;;;;;27.59;33.74;100126.28;5039677;28;1067;-42
2023/10/25 03:11:58;;;;;;;;;;;;;;;27.53;34.10;100116.31;5057624;28;1147;-41
2023/10/25 03:14:23;;;;;;;;;;;;;;;27.55;33.55;100116.91;5050321;28;1172;-43
2023/10/25 03:16:49;;;;;;;;;;;;;;;27.35;35.63;100113.09;5072900;28;1019;-47
2023/10/25 03:19:14;;;;;;;;;;;;;;;26.59;40.28;100118.16;5052266;28;1259;-44
2023/10/25 03:21:40;;;;;;;;;;;;;;;26.28;42.31;100119.31;5040098;28;1143;-44
2023/10/25 03:24:06;;;;;;;;;;;;;;;25.95;43.57;100117.97;5047464;28;1905;-41
2023/10/25 03:26:33;;;;;;;;;;;;;;;25.74;44.14;100110.69;5039754;28;1172;-42
2023/10/25 03:28:58;;;;;;;;;;;;;;;25.84;43.34;100108.50;5025873;28;1234;-44
2023/10/25 03:31:24;;;;;;;;;;;;;;;25.94;42.41;100107.38;5039184;28;1055;-42
2023/10/25 03:33:49;;;;;;;;;;;;;;;25.52;44.73;100110.59;5037129;28;1073;-41
2023/10/25 03:36:15;;;;;;;;;;;;;;;25.25;45.52;100105.69;5037704;28;1048;-40
2023/10/25 03:38:40;;;;;;;;;;;;;;;25.17;45.57;100103.09;5049972;28;1106;-40
2023/10/25 03:41:06;;;;;;;;;;;;;;;25.05;45.33;100102.72;5036892;28;1091;-42
2023/10/25 03:43:32;;;;;;;;;;;;;;;24.96;46.05;100101.16;5037226;28;1902;-42
2023/10/25 03:46:07;;;;;;;;;;;;;;;24.99;45.94;100104.28;5049476;28;1041;-40
2023/10/25 03:48:34;;;;;;;;;;;;;;;25.10;45.96;100100.31;5026447;28;1238;-41
2023/10/25 03:51:01;;;;;;;;;;;;;;;24.80;46.54;100102.94;5043293;28;1052;-41
2023/10/25 03:53:27;;;;;;;;;;;;;;;25.02;46.27;100095.88;5055460;28;1108;-42
2023/10/25 03:55:53;;;;;;;;;;;;;;;25.99;44.61;100092.28;5039982;28;1083;-45
2023/10/25 03:58:19;;;;;;;;;;;;;;;25.64;46.08;100087.56;5032198;28;1065;-42
2023/10/25 04:00:45;;;;;;;;;;;;;;;26.04;43.75;100081.75;5036712;28;1051;-45
2023/10/25 04:03:10;;;;;;;;;;;;;;;26.13;43.54;100084.34;5050083;28;1045;-45
2023/10/25 04:05:38;;;;;;;;;;;;;;;25.82;43.37;100070.16;5043567;28;1914;-37
2023/10/25 04:08:04;;;;;;;;;;;;;;;25.98;43.90;100081.69;5030519;28;1155;-40
2023/10/25 04:10:30;;;;;;;;;;;;;;;25.82;44.29;100078.25;5044858;28;1290;-40
2023/10/25 04:12:55;;;;;;;;;;;;;;;26.56;41.92;100055.72;5056548;28;1126;-40
2023/10/25 04:15:21;;;;;;;;;;;;;;;27.28;39.95;100057.41;5054822;28;1068;-43
2023/10/25 04:17:47;;;;;;;;;;;;;;;27.38;39.34;100055.97;5039741;28;1119;-37
2023/10/25 04:20:12;;;;;;;;;;;;;;;27.34;38.80;100065.50;5067253;28;1168;-42
2023/10/25 04:22:38;;;;;;;;;;;;;;;27.65;38.34;100065.19;5076242;28;1048;-42
2023/10/25 04:25:03;;;;;;;;;;;;;;;27.73;38.62;100065.03;5076071;28;1895;-42
2023/10/25 04:27:29;;;;;;;;;;;;;;;27.81;39.54;100070.25;5050629;28;1237;-37
2023/10/25 04:29:55;;;;;;;;;;;;;;;27.83;38.71;100078.16;5057965;28;1060;-42
2023/10/25 04:32:20;;;;;;;;;;;;;;;27.81;38.40;100080.25;5073907;28;1062;-43
2023/10/25 04:34:46;;;;;;;;;;;;;;;27.56;38.78;100078.88;5076127;28;1261;-39
2023/10/25 04:37:13;;;;;;;;;;;;;;;27.10;39.87;100075.78;5076030;28;1011;-43
2023/10/25 04:39:39;;;;;;;;;;;;;;;26.82;40.11;100071.25;5061337;28;1163;-41
2023/10/25 04:42:04;;;;;;;;;;;;;;;26.48;39.31;100067.44;5064604;28;1075;-40
2023/10/25 04:44:31;;;;;;;;;;;;;;;26.53;40.23;100060.47;5074639;28;1967;-40
2023/10/25 04:46:57;;;;;;;;;;;;;;;26.62;40.15;100060.31;5072393;28;1075;-41
2023/10/25 04:49:22;;;;;;;;;;;;;;;26.61;39.98;100056.78;5074570;28;1120;-42
2023/10/25 04:51:48;;;;;;;;;;;;;;;26.55;40.08;100045.94;5080069;28;1170;-41
2023/10/25 04:54:13;;;;;;;;;;;;;;;26.93;39.54;100042.84;5072468;28;1344;-43
2023/10/25 04:56:39;;;;;;;;;;;;;;;27.23;39.20;100039.91;5066910;28;1151;-43
2023/10/25 04:59:04;;;;;;;;;;;;;;;27.30;38.50;100037.25;5072863;28;1130;-41
2023/10/25 05:01:30;;;;;;;;;;;;;;;27.26;38.75;100036.81;5060244;28;1063;-39
2023/10/25 05:03:55;;;;;;;;;;;;;;;27.10;38.91;100040.69;5079821;28;1902;-42
2023/10/25 05:06:21;;;;;;;;;;;;;;;27.05;37.97;100045.88;5066583;28;1125;-43
2023/10/25 05:08:47;;;;;;;;;;;;;;;26.82;39.37;100041.56;5079227;28;896;-44
2023/10/25 05:11:13;;;;;;;;;;;;;;;26.95;39.16;100040.78;5079701;28;1105;-42
2023/10/25 05:13:39;;;;;;;;;;;;;;;26.86;39.55;100048.22;5079523;28;1201;-39
2023/10/25 05:16:05;;;;;;;;;;;;;;;26.94;39.20;100041.00;5079429;28;1374;-44
2023/10/25 05:18:31;;;;;;;;;;;;;;;27.07;38.99;100056.47;5078738;28;1481;-44
2023/10/25 05:21:00;;;;;;;;;;;;;;;27.15;38.98;100053.59;5067569;28;1060;-43
2023/10/25 05:23:32;;;;;;;;;;;;;;;27.01;39.17;100053.53;5066530;28;1102;-43
2023/10/25 05:25:58;;;;;;;;;;;;;;;27.20;39.12;100051.13;5070930;28;1910;-42
2023/10/25 05:28:24;;;;;;;;;;;;;;;27.13;39.17;100051.09;5072686;28;1160;-44
2023/10/25 05:30:50;;;;;;;;;;;;;;;26.99;39.75;100050.16;5059182;28;1060;-42
2023/10/25 05:33:16;;;;;;;;;;;;;;;26.61;40.86;100047.88;5066816;28;1102;-42
2023/10/25 05:35:42;;;;;;;;;;;;;;;26.76;40.21;100037.78;5070030;28;1119;-44
2023/10/25 05:38:08;;;;;;;;;;;;;;;26.55;38.23;100033.28;5059024;28;1110;-41
2023/10/25 05:40:33;;;;;;;;;;;;;;;26.64;39.54;100031.28;5068682;28;1056;-44
2023/10/25 05:42:59;;;;;;;;;;;;;;;26.70;40.03;100035.03;5065575;28;1000;-43
2023/10/25 05:45:24;;;;;;;;;;;;;;;26.35;40.19;100031.28;5051092;28;1977;-43
2023/10/25 05:47:50;;;;;;;;;;;;;;;26.38;40.44;100030.88;5062016;28;1158;-43
2023/10/25 05:50:16;;;;;;;;;;;;;;;26.24;40.99;100029.09;5078570;28;1023;-41
2023/10/25 05:52:45;;;;;;;;;;;;;;;25.48;40.37;100032.03;5075751;28;1058;-43
2023/10/25 05:55:13;;;;;;;;;;;;;;;25.20;38.51;100038.13;5069465;28;1230;-42
2023/10/25 05:57:39;;;;;;;;;;;;;;;25.59;40.85;100016.41;5059967;28;862;-41
2023/10/25 06:00:06;;;;;;;;;;;;;;;25.72;41.55;100007.66;5058852;28;1063;-42
2023/10/25 06:02:32;;;;;;;;;;;;;;;25.94;41.28;100013.91;5058838;28;1016;-42
2023/10/25 06:04:59;;;;;;;;;;;;;;;25.90;41.64;100001.81;5057914;28;1974;-43
2023/10/25 06:07:25;;;;;;;;;;;;;;;25.88;41.70;99995.78;5061404;28;1032;-42
2023/10/25 06:09:50;;;;;;;;;;;;;;;25.90;41.99;99986.50;5069835;28;1134;-44
2023/10/25 06:12:16;;;;;;;;;;;;;;;25.85;41.63;99975.47;5068417;28;1095;-41
2023/10/25 06:14:41;;;;;;;;;;;;;;;25.61;42.23;99977.47;5071969;28;1082;-40
2023/10/25 06:17:07;;;;;;;;;;;;;;;25.76;42.05;99988.22;5068786;28;1063;-42
2023/10/25 06:19:32;;;;;;;;;;;;;;;26.05;41.62;99996.38;5074911;28;1290;-42
2023/10/25 06:21:58;;;;;;;;;;;;;;;26.04;41.72;99995.53;5070315;28;929;-44
2023/10/25 06:24:23;;;;;;;;;;;;;;;25.84;42.21;99997.22;5074637;28;1905;-41
2023/10/25 06:26:49;;;;;;;;;;;;;;;25.94;41.87;99999.59;5058090;28;1143;-42
2023/10/25 06:29:14;;;;;;;;;;;;;;;26.12;41.39;100001.81;5062193;28;1056;-40
2023/10/25 06:31:40;;;;;;;;;;;;;;;26.29;41.32;99999.69;5068761;28;1008;-42
2023/10/25 06:34:05;;;;;;;;;;;;;;;26.09;41.65;100007.59;5065735;28;1179;-43
2023/10/25 06:36:32;;;;;;;;;;;;;;;25.97;41.88;100007.28;5067965;28;1055;-41
2023/10/25 06:38:57;;;;;;;;;;;;;;;26.05;41.75;100001.75;5074829;28;1064;-42
2023/10/25 06:41:23;;;;;;;;;;;;;;;26.14;41.63;100007.84;5067806;28;1123;-40
2023/10/25 06:43:49;;;;;;;;;;;;;;;26.25;40.29;100001.09;5058266;28;1921;-43
2023/10/25 06:46:14;;;;;;;;;;;;;;;26.20;40.90;100003.53;5070967;28;861;-42
2023/10/25 06:48:40;;;;;;;;;;;;;;;26.26;40.74;100008.13;5077978;28;1051;-43
2023/10/25 06:51:05;;;;;;;;;;;;;;;26.31;40.36;100003.00;5068297;28;1079;-42
2023/10/25 06:53:31;;;;;;;;;;;;;;;26.30;40.95;99995.94;5072366;28;1159;-40
2023/10/25 06:55:57;;;;;;;;;;;;;;;26.26;40.87;100005.44;5057951;28;1067;-42
2023/10/25 06:58:23;;;;;;;;;;;;;;;26.46;40.56;99988.63;5060212;28;1179;-43
2023/10/25 07:00:49;;;;;;;;;;;;;;;26.67;40.04;99995.81;5073466;28;1438;-41
2023/10/25 07:03:14;;;;;;;;;;;;;;;26.78;39.69;99999.81;5053398;28;1007;-43
2023/10/25 07:05:40;;;;;;;;;;;;;;;26.85;39.60;100007.94;5059389;28;1985;-41
2023/10/25 07:08:05;;;;;;;;;;;;;;;26.38;40.75;100006.63;5077605;28;1020;-40
2023/10/25 07:10:31;;;;;;;;;;;;;;;26.40;40.70;99998.31;5069251;28;1265;-42
2023/10/25 07:12:56;;;;;;;;;;;;;;;26.16;41.13;100001.22;5077489;28;1055;-43
2023/10/25 07:15:24;;;;;;;;;;;;;;;26.37;40.35;99988.78;5077052;28;1075;-42
2023/10/25 07:17:49;;;;;;;;;;;;;;;26.24;39.76;99973.28;5066181;28;1331;-43
2023/10/25 07:20:15;;;;;;;;;;;;;;;25.19;39.99;99854.25;5067986;28;1203;-42
2023/10/25 07:22:41;;;;;;;;;;;;;;;26.48;39.00;99971.22;5070652;28;1244;-41
2023/10/25 07:25:07;;;;;;;;;;;;;;;26.78;39.02;99970.97;5076426;28;1993;-42
2023/10/25 07:27:33;;;;;;;;;;;;;;;27.19;37.60;99962.22;5075205;28;1059;-43
2023/10/25 07:29:58;;;;;;;;;;;;;;;27.32;37.07;99950.63;5071574;28;1159;-42
2023/10/25 07:32:24;;;;;;;;;;;;;;;27.19;37.31;99954.97;5068019;28;1210;-42
2023/10/25 07:34:50;;;;;;;;;;;;;;;27.00;37.75;99957.38;5060564;28;1054;-44
2023/10/25 07:37:15;;;;;;;;;;;;;;;26.16;38.53;99943.78;5070385;28;1112;-41
2023/10/25 07:39:41;;;;;;;;;;;;;;;26.70;37.70;99952.25;5064316;28;996;-42
2023/10/25 07:42:07;;;;;;;;;;;;;;;27.18;37.04;99947.88;5058280;28;1202;-43
2023/10/25 07:44:33;;;;;;;;;;;;;;;27.53;36.35;99951.53;5065222;28;1910;-40
2023/10/25 07:46:58;;;;;;;;;;;;;;;27.56;36.43;99959.22;5061761;28;905;-43
2023/10/25 07:49:24;;;;;;;;;;;;;;;27.84;36.33;99948.22;5075387;28;1068;-41
2023/10/25 07:51:49;;;;;;;;;;;;;;;27.79;35.72;99950.75;5075060;28;1094;-43
2023/10/25 07:54:15;;;;;;;;;;;;;;;27.61;35.97;99948.63;5061275;28;1321;-42
2023/10/25 07:56:40;;;;;;;;;;;;;;;28.09;35.41;99942.19;5057169;28;1336;-40
2023/10/25 07:59:06;;;;;;;;;;;;;;;27.82;36.32;99941.38;5065854;28;1337;-40
2023/10/25 08:01:31;;;;;;;;;;;;;;;27.98;35.69;99942.81;5075400;28;1142;-40
2023/10/25 08:03:57;;;;;;;;;;;;;;;28.12;35.54;99951.78;5075539;28;1906;-42
2023/10/25 08:06:22;;;;;;;;;;;;;;;27.88;36.13;99948.66;5075289;28;1351;-42
2023/10/25 08:08:51;;;;;;;;;;;;;;;27.41;36.64;99946.69;5076836;28;1336;-40
2023/10/25 08:11:16;;;;;;;;;;;;;;;27.91;35.67;99945.53;5066085;28;1288;-40
2023/10/25 08:13:44;;;;;;;;;;;;;;;28.07;35.06;99940.75;5068570;28;1363;-39
2023/10/25 08:16:10;;;;;;;;;;;;;;;28.10;35.30;99926.81;5076097;28;1297;-37
2023/10/25 08:18:35;;;;;;;;;;;;;;;27.93;35.07;99921.84;5075577;28;1267;-37
2023/10/25 08:21:01;;;;;;;;;;;;;;;28.08;35.07;99905.38;5056197;28;1094;-42
2023/10/25 08:23:27;;;;;;;;;;;;;;;28.42;34.80;99931.56;5056599;28;1209;-39
2023/10/25 08:25:52;;;;;;;;;;;;;;;28.46;34.29;99943.66;5076309;28;1914;-37
2023/10/25 08:28:18;;;;;;;;;;;;;;;28.42;34.40;99931.56;5075985;28;1051;-41
2023/10/25 08:30:43;;;;;;;;;;;;;;;28.65;33.80;99922.97;5076300;28;1122;-35
2023/10/25 08:33:10;;;;;;;;;;;;;;;27.95;35.32;99919.75;5076658;28;1184;-36
2023/10/25 08:35:37;;;;;;;;;;;;;;;28.30;34.75;99909.72;5062774;28;861;-44
2023/10/25 08:38:03;;;;;;;;;;;;;;;28.63;34.23;99899.88;5062283;28;1039;-40
2023/10/25 08:40:29;;;;;;;;;;;;;;;28.53;33.60;99903.03;5063200;28;1310;-40
2023/10/25 08:42:57;;;;;;;;;;;;;;;28.64;32.56;99917.78;5048520;28;1203;-40
2023/10/25 08:45:23;;;;;;;;;;;;;;;27.55;35.46;99901.63;5070786;28;1934;-42
2023/10/25 08:47:49;;;;;;;;;;;;;;;26.47;36.82;99901.28;5072927;28;853;-42
2023/10/25 08:50:19;;;;;;;;;;;;;;;27.15;35.76;99913.22;5062589;28;1090;-43
2023/10/25 08:52:44;;;;;;;;;;;;;;;26.17;35.46;99911.22;5057939;28;1141;-44
2023/10/25 08:55:10;;;;;;;;;;;;;;;25.21;37.35;99896.31;5055070;28;1356;-44
2023/10/25 08:57:38;;;;;;;;;;;;;;;25.02;39.95;99894.06;5063235;28;1667;-44
2023/10/25 09:00:07;;;;;;;;;;;;;;;25.31;40.29;99884.19;5062837;28;914;-42
2023/10/25 09:02:41;;;;;;;;;;;;;;;25.36;38.82;99888.19;5062439;28;1011;-43
2023/10/25 09:05:07;;;;;;;;;;;;;;;26.78;37.38;99895.41;5075420;28;1990;-37
2023/10/25 09:07:34;;;;;;;;;;;;;;;26.51;34.55;99900.69;5055710;28;1214;-38
2023/10/25 09:10:00;;;;;;;;;;;;;;;26.80;35.68;99892.50;5057283;28;1071;-35
2023/10/25 09:12:26;;;;;;;;;;;;;;;27.25;36.15;99896.63;5070645;28;1031;-39
2023/10/25 09:14:51;;;;;;;;;;;;;;;27.01;36.97;99885.31;5070629;28;1134;-37
2023/10/25 09:17:17;;;;;;;;;;;;;;;27.04;37.41;99882.25;5055891;28;1068;-36
2023/10/25 09:19:43;;;;;;;;;;;;;;;26.22;36.57;99886.41;5036339;28;1051;-39
2023/10/25 09:22:27;;;;;;;;;;;;;;;26.30;36.49;99885.41;5034639;28;1077;-37
2023/10/25 09:24:54;;;;;;;;;;;;;;;26.75;36.87;99876.09;5043456;28;1914;-39
2023/10/25 09:27:20;;;;;;;;;;;;;;;26.98;36.61;99873.06;5040530;28;1039;-40
2023/10/25 09:29:46;;;;;;;;;;;;;;;26.72;34.24;99874.66;5043906;28;1039;-32
2023/10/25 09:32:11;;;;;;;;;;;;;;;27.21;34.02;99879.97;5057261;28;1110;-35
2023/10/25 09:34:37;;;;;;;;;;;;;;;27.25;35.07;99875.84;5047526;28;1266;-38
2023/10/25 09:37:04;;;;;;;;;;;;;;;26.67;33.61;99868.19;5046451;28;1039;-32
2023/10/25 09:39:30;;;;;;;;;;;;;;;25.93;33.19;99864.03;5056040;28;1118;-35
2023/10/25 09:41:55;;;;;;;;;;;;;;;25.82;33.40;99859.16;5058579;28;1116;-37
2023/10/25 09:44:21;;;;;;;;;;;;;;;26.39;34.89;99837.59;5058580;28;1910;-37
2023/10/25 09:46:47;;;;;;;;;;;;;;;26.94;34.77;99847.53;5045365;28;1182;-37
2023/10/25 09:49:15;;;;;;;;;;;;;;;27.31;34.63;99846.38;5034893;28;1415;-37
2023/10/25 09:51:58;;;;;;;;;;;;;;;27.08;34.25;99840.31;5052413;28;1013;-38
2023/10/25 09:54:34;;;;;;;;;;;;;;;27.37;33.89;99827.47;5058890;28;1068;-37
2023/10/25 09:57:02;;;;;;;;;;;;;;;26.15;33.23;99832.44;5042500;28;1325;-35
2023/10/25 09:59:28;;;;;;;;;;;;;;;27.13;34.62;99824.31;5048896;28;1051;-40
2023/10/25 10:01:53;;;;;;;;;;;;;;;27.37;34.79;99835.56;5053073;28;1294;-35
2023/10/25 10:04:21;;;;;;;;;;;;;;;27.31;34.22;99822.88;5038799;28;1918;-40
2023/10/25 10:07:06;;;;;;;;;;;;;;;27.36;34.68;99830.38;5020923;28;1040;-41
2023/10/25 10:09:50;;;;;;;;;;;;;;;27.22;35.50;99824.97;5022726;28;1049;-39
2023/10/25 10:12:15;;;;;;;;;;;;;;;27.25;35.62;99819.16;5036903;28;1753;-38
2023/10/25 10:14:41;;;;;;;;;;;;;;;27.65;35.15;99820.19;5038223;28;1148;-40
2023/10/25 10:17:06;;;;;;;;;;;;;;;27.74;33.38;99816.25;5046361;28;1013;-35
2023/10/25 10:19:32;;;;;;;;;;;;;;;28.11;32.16;99804.94;5062556;28;1076;-35
2023/10/25 10:22:04;;;;;;;;;;;;;;;28.16;32.98;99804.28;5070839;28;1035;-35
2023/10/25 10:24:49;;;;;;;;;;;;;;;28.27;31.17;99802.81;5060118;28;1985;-34
2023/10/25 10:27:16;;;;;;;;;;;;;;;28.14;30.57;99798.28;5061261;28;1115;-31
2023/10/25 10:29:41;;;;;;;;;;;;;;;28.19;30.59;99803.03;5059217;28;1103;-36
2023/10/25 10:32:07;;;;;;;;;;;;;;;28.19;30.08;99794.94;5071111;28;904;-39
2023/10/25 10:34:36;;;;;;;;;;;;;;;28.19;29.13;99794.94;5070834;28;1115;-38
2023/10/25 10:37:08;;;;;;;;;;;;;;;28.05;30.06;99786.88;5065652;28;1028;-41
2023/10/25 10:39:35;;;;;;;;;;;;;;;28.30;31.81;99783.44;5075640;28;1119;-38
2023/10/25 10:42:01;;;;;;;;;;;;;;;28.06;32.20;99774.19;5074651;28;1297;-39
2023/10/25 10:44:27;;;;;;;;;;;;;;;27.53;33.47;99775.94;5077701;28;1910;-44
2023/10/25 10:46:58;;;;;;;;;;;;;;;27.35;33.77;99770.13;5071039;28;1471;-43
2023/10/25 10:49:26;;;;;;;;;;;;;;;27.67;33.25;99774.03;5075068;28;1059;-41
2023/10/25 10:51:52;;;;;;;;;;;;;;;28.28;31.74;99772.00;5056614;28;1196;-42
2023/10/25 10:54:17;;;;;;;;;;;;;;;27.92;32.44;99776.94;5070973;28;1107;-44
2023/10/25 10:56:43;;;;;;;;;;;;;;;27.65;32.88;99782.34;5071623;28;1066;-42
2023/10/25 10:59:08;;;;;;;;;;;;;;;27.94;32.26;99774.84;5072895;28;1140;-37
2023/10/25 11:01:34;;;;;;;;;;;;;;;27.78;32.08;99770.72;5057486;28;1160;-43
2023/10/25 11:04:00;;;;;;;;;;;;;;;27.90;32.36;99765.50;5069065;28;1984;-43
2023/10/25 11:06:25;;;;;;;;;;;;;;;28.20;31.59;99767.69;5059340;28;1122;-43
2023/10/25 11:08:52;;;;;;;;;;;;;;;28.35;31.19;99764.72;5063046;28;1130;-43
2023/10/25 11:11:20;;;;;;;;;;;;;;;28.67;30.82;99768.50;5067729;28;1185;-44
2023/10/25 11:13:47;;;;;;;;;;;;;;;28.71;30.72;99765.16;5063310;28;1147;-44
2023/10/25 11:16:12;;;;;;;;;;;;;;;28.66;30.91;99756.84;5055300;28;1305;-36
2023/10/25 11:18:38;;;;;;;;;;;;;;;26.89;33.50;99764.47;5060285;28;1329;-36
2023/10/25 11:21:03;;;;;;;;;;;;;;;26.52;34.36;99755.88;5057163;28;1101;-38
2023/10/25 11:23:29;;;;;;;;;;;;;;;27.36;33.22;99752.06;5066393;28;1221;-42
2023/10/25 11:25:55;;;;;;;;;;;;;;;27.42;33.31;99764.72;5056437;28;1977;-41
2023/10/25 11:28:20;;;;;;;;;;;;;;;26.68;34.15;99761.94;5061889;28;1458;-43
2023/10/25 11:30:48;;;;;;;;;;;;;;;27.26;33.08;99763.25;5075051;28;1243;-43
2023/10/25 11:33:15;;;;;;;;;;;;;;;26.52;34.08;99763.97;5049217;28;1149;-41
2023/10/25 11:35:41;;;;;;;;;;;;;;;26.35;34.31;99761.66;5049796;28;1286;-40
2023/10/25 11:38:06;;;;;;;;;;;;;;;27.89;31.35;99766.53;5048019;28;1374;-39
2023/10/25 11:40:49;;;;;;;;;;;;;;;28.63;30.37;99767.31;5064188;28;1096;-38
2023/10/25 11:43:15;;;;;;;;;;;;;;;27.37;32.77;99764.53;5062885;28;1103;-39
2023/10/25 11:45:40;;;;;;;;;;;;;;;27.91;30.35;99760.94;5067084;28;1906;-35
2023/10/25 11:48:06;;;;;;;;;;;;;;;28.67;30.40;99758.53;5065195;28;1134;-39
2023/10/25 11:50:32;;;;;;;;;;;;;;;28.93;30.00;99770.22;5075396;28;1398;-45
2023/10/25 11:53:00;;;;;;;;;;;;;;;29.23;30.00;99763.34;5070790;28;1482;-43
2023/10/25 11:55:27;;;;;;;;;;;;;;;29.57;29.29;99760.34;5071943;28;1021;-43
2023/10/25 11:57:53;;;;;;;;;;;;;;;29.97;29.07;99766.41;5067574;28;1187;-38
2023/10/25 12:00:18;;;;;;;;;;;;;;;30.13;28.63;99764.97;5069911;28;1451;-42
2023/10/25 12:02:44;;;;;;;;;;;;;;;30.82;27.71;99763.03;5067768;28;1391;-35
2023/10/25 12:05:09;;;;;;;;;;;;;;;30.98;27.08;99767.78;5071493;28;1902;-33
2023/10/25 12:07:35;;;;;;;;;;;;;;;30.84;27.96;99766.34;5075962;28;1023;-40
2023/10/25 12:10:01;;;;;;;;;;;;;;;30.62;28.57;99759.53;5074896;28;1475;-35
2023/10/25 12:12:26;;;;;;;;;;;;;;;31.01;27.67;99756.47;5076084;28;985;-33
2023/10/25 12:14:52;;;;;;;;;;;;;;;31.21;27.04;99762.63;5058695;28;1011;-37
2023/10/25 12:17:17;;;;;;;;;;;;;;;31.40;26.74;99758.78;5067165;28;1103;-34
2023/10/25 12:19:43;;;;;;;;;;;;;;;31.51;26.36;99759.81;5072337;28;1096;-31
2023/10/25 12:22:09;;;;;;;;;;;;;;;31.21;26.92;99758.03;5075964;28;1114;-39
2023/10/25 12:24:35;;;;;;;;;;;;;;;31.40;26.95;99764.22;5064537;28;1901;-37
2023/10/25 12:27:01;;;;;;;;;;;;;;;31.17;27.41;99767.72;5039594;28;1111;-40
2023/10/25 12:29:27;;;;;;;;;;;;;;;31.13;27.17;99767.34;5076171;28;1079;-35
2023/10/25 12:31:52;;;;;;;;;;;;;;;31.35;26.33;99764.06;5057904;28;1087;-38
2023/10/25 12:34:18;;;;;;;;;;;;;;;31.03;26.79;99756.25;5074903;28;1390;-37
2023/10/25 12:36:43;;;;;;;;;;;;;;;31.02;27.30;99744.56;5075051;28;1114;-36
2023/10/25 12:39:09;;;;;;;;;;;;;;;31.31;26.59;99754.72;5076328;28;1125;-33
2023/10/25 12:41:34;;;;;;;;;;;;;;;31.29;26.96;99745.97;5076059;28;1372;-33
2023/10/25 12:44:02;;;;;;;;;;;;;;;31.12;27.36;99757.56;5063876;28;1926;-35
2023/10/25 12:46:27;;;;;;;;;;;;;;;30.95;27.79;99753.88;5074631;28;1105;-35
2023/10/25 12:48:53;;;;;;;;;;;;;;;31.09;27.54;99755.31;5062478;28;1001;-37